sensor_id;sensor_type;location;lat;lon;timestamp;pressure;altitude;pressure_sealevel;temperature
63113;BMP280;49206;48.020;21.378;2022-12-24T00:00:06;100039.03;;;5.34
63113;BMP280;49206;48.020;21.378;2022-12-24T00:01:15;100038.25;;;5.34
63113;BMP280;49206;48.020;21.378;2022-12-24T00:02:20;100035.91;;;5.32
63113;BMP280;49206;48.020;21.378;2022-12-24T00:03:23;100027.00;;;5.33
63113;BMP280;49206;48.020;21.378;2022-12-24T00:04:26;100033.31;;;5.32
63113;BMP280;49206;48.020;21.378;2022-12-24T00:05:29;100031.47;;;5.33
63113;BMP280;49206;48.020;21.378;2022-12-24T00:06:32;100035.63;;;5.34
63113;BMP280;49206;48.020;21.378;2022-12-24T00:07:37;100033.78;;;5.34
63113;BMP280;49206;48.020;21.378;2022-12-24T00:08:41;100026.69;;;5.35
63113;BMP280;49206;48.020;21.378;2022-12-24T00:09:43;100019.16;;;5.33
63113;BMP280;49206;48.020;21.378;2022-12-24T00:10:52;100019.91;;;5.34
63113;BMP280;49206;48.020;21.378;2022-12-24T00:11:55;100010.97;;;5.35
63113;BMP280;49206;48.020;21.378;2022-12-24T00:12:58;100007.28;;;5.36
63113;BMP280;49206;48.020;21.378;2022-12-24T00:14:00;100006.50;;;5.35
63113;BMP280;49206;48.020;21.378;2022-12-24T00:15:05;100010.97;;;5.35
63113;BMP280;49206;48.020;21.378;2022-12-24T00:16:12;100007.16;;;5.41
63113;BMP280;49206;48.020;21.378;2022-12-24T00:17:15;100005.78;;;5.43
63113;BMP280;49206;48.020;21.378;2022-12-24T00:18:20;100005.28;;;5.41
63113;BMP280;49206;48.020;21.378;2022-12-24T00:19:32;100007.44;;;5.39
63113;BMP280;49206;48.020;21.378;2022-12-24T00:20:40;100004.38;;;5.37
63113;BMP280;49206;48.020;21.378;2022-12-24T00:21:45;100004.38;;;5.37
63113;BMP280;49206;48.020;21.378;2022-12-24T00:22:51;100000.19;;;5.36
63113;BMP280;49206;48.020;21.378;2022-12-24T00:23:57;99998.97;;;5.34
63113;BMP280;49206;48.020;21.378;2022-12-24T00:25:01;100011.75;;;5.35
63113;BMP280;49206;48.020;21.378;2022-12-24T00:26:04;100016.84;;;5.40
63113;BMP280;49206;48.020;21.378;2022-12-24T00:27:07;100024.41;;;5.42
63113;BMP280;49206;48.020;21.378;2022-12-24T00:28:11;100019.28;;;5.37
63113;BMP280;49206;48.020;21.378;2022-12-24T00:29:18;100010.66;;;5.36
63113;BMP280;49206;48.020;21.378;2022-12-24T00:30:21;100008.69;;;5.33
63113;BMP280;49206;48.020;21.378;2022-12-24T00:31:29;100002.66;;;5.33
63113;BMP280;49206;48.020;21.378;2022-12-24T00:32:37;100010.06;;;5.31
63113;BMP280;49206;48.020;21.378;2022-12-24T00:33:51;100004.81;;;5.31
63113;BMP280;49206;48.020;21.378;2022-12-24T00:35:00;100000.34;;;5.31
63113;BMP280;49206;48.020;21.378;2022-12-24T00:36:03;100004.81;;;5.31
63113;BMP280;49206;48.020;21.378;2022-12-24T00:37:06;99999.59;;;5.31
63113;BMP280;49206;48.020;21.378;2022-12-24T00:38:12;99998.03;;;5.30
63113;BMP280;49206;48.020;21.378;2022-12-24T00:39:17;99994.34;;;5.31
63113;BMP280;49206;48.020;21.378;2022-12-24T00:40:24;99991.41;;;5.32
63113;BMP280;49206;48.020;21.378;2022-12-24T00:41:27;99995.72;;;5.28
63113;BMP280;49206;48.020;21.378;2022-12-24T00:42:37;99991.25;;;5.29
63113;BMP280;49206;48.020;21.378;2022-12-24T00:43:46;99995.72;;;5.28
63113;BMP280;49206;48.020;21.378;2022-12-24T00:44:56;99995.41;;;5.30
63113;BMP280;49206;48.020;21.378;2022-12-24T00:45:59;99998.03;;;5.30
63113;BMP280;49206;48.020;21.378;2022-12-24T00:47:02;99989.72;;;5.28
63113;BMP280;49206;48.020;21.378;2022-12-24T00:48:12;99998.34;;;5.28
63113;BMP280;49206;48.020;21.378;2022-12-24T00:49:28;100003.09;;;5.26
63113;BMP280;49206;48.020;21.378;2022-12-24T00:50:50;99991.69;;;5.22
63113;BMP280;49206;48.020;21.378;2022-12-24T00:52:00;99989.84;;;5.23
63113;BMP280;49206;48.020;21.378;2022-12-24T00:53:04;99983.81;;;5.22
63113;BMP280;49206;48.020;21.378;2022-12-24T00:54:36;99977.22;;;5.25
63113;BMP280;49206;48.020;21.378;2022-12-24T00:55:51;99978.59;;;5.22
63113;BMP280;49206;48.020;21.378;2022-12-24T00:56:53;99974.44;;;5.21
63113;BMP280;49206;48.020;21.378;2022-12-24T00:57:56;99976.75;;;5.23
63113;BMP280;49206;48.020;21.378;2022-12-24T00:59:03;99975.84;;;5.27
63113;BMP280;49206;48.020;21.378;2022-12-24T01:00:09;99974.59;;;5.25
63113;BMP280;49206;48.020;21.378;2022-12-24T01:01:14;99970.16;;;5.25
63113;BMP280;49206;48.020;21.378;2022-12-24T01:02:17;99973.22;;;5.27
63113;BMP280;49206;48.020;21.378;2022-12-24T01:03:23;99975.09;;;5.27
63113;BMP280;49206;48.020;21.378;2022-12-24T01:04:38;99975.41;;;5.34
63113;BMP280;49206;48.020;21.378;2022-12-24T01:06:15;99982.66;;;5.28
63113;BMP280;49206;48.020;21.378;2022-12-24T01:07:18;99981.41;;;5.26
63113;BMP280;49206;48.020;21.378;2022-12-24T01:08:21;99988.75;;;5.24
63113;BMP280;49206;48.020;21.378;2022-12-24T01:09:24;99985.06;;;5.25
63113;BMP280;49206;48.020;21.378;2022-12-24T01:10:33;99983.25;;;5.25
63113;BMP280;49206;48.020;21.378;2022-12-24T01:11:41;99987.69;;;5.25
63113;BMP280;49206;48.020;21.378;2022-12-24T01:12:44;99997.56;;;5.28
63113;BMP280;49206;48.020;21.378;2022-12-24T01:13:47;100000.97;;;5.28
63113;BMP280;49206;48.020;21.378;2022-12-24T01:14:52;99999.41;;;5.27
63113;BMP280;49206;48.020;21.378;2022-12-24T01:15:57;100005.72;;;5.26
63113;BMP280;49206;48.020;21.378;2022-12-24T01:17:00;100006.78;;;5.25
63113;BMP280;49206;48.020;21.378;2022-12-24T01:18:03;100008.63;;;5.25
63113;BMP280;49206;48.020;21.378;2022-12-24T01:19:09;100000.59;;;5.21
63113;BMP280;49206;48.020;21.378;2022-12-24T01:20:14;100015.53;;;5.21
63113;BMP280;49206;48.020;21.378;2022-12-24T01:21:21;100012.44;;;5.19
63113;BMP280;49206;48.020;21.378;2022-12-24T01:22:24;100007.22;;;5.19
63113;BMP280;49206;48.020;21.378;2022-12-24T01:23:30;100009.06;;;5.18
63113;BMP280;49206;48.020;21.378;2022-12-24T01:24:34;100009.81;;;5.19
63113;BMP280;49206;48.020;21.378;2022-12-24T01:25:37;100015.38;;;5.17
63113;BMP280;49206;48.020;21.378;2022-12-24T01:26:45;100009.41;;;5.17
63113;BMP280;49206;48.020;21.378;2022-12-24T01:27:48;100009.41;;;5.17
63113;BMP280;49206;48.020;21.378;2022-12-24T01:29:06;100016.94;;;5.18
63113;BMP280;49206;48.020;21.378;2022-12-24T01:30:12;100016.31;;;5.21
63113;BMP280;49206;48.020;21.378;2022-12-24T01:31:19;100011.84;;;5.22
63113;BMP280;49206;48.020;21.378;2022-12-24T01:32:23;100020.47;;;5.22
63113;BMP280;49206;48.020;21.378;2022-12-24T01:33:31;100005.84;;;5.21
63113;BMP280;49206;48.020;21.378;2022-12-24T01:34:34;100009.25;;;5.22
63113;BMP280;49206;48.020;21.378;2022-12-24T01:35:41;100010.78;;;5.23
63113;BMP280;49206;48.020;21.378;2022-12-24T01:36:51;100001.38;;;5.22
63113;BMP280;49206;48.020;21.378;2022-12-24T01:37:55;99995.38;;;5.21
63113;BMP280;49206;48.020;21.378;2022-12-24T01:39:24;99992.47;;;5.23
63113;BMP280;49206;48.020;21.378;2022-12-24T01:40:26;99995.53;;;5.25
63113;BMP280;49206;48.020;21.378;2022-12-24T01:41:55;99994.78;;;5.24
63113;BMP280;49206;48.020;21.378;2022-12-24T01:43:19;99992.91;;;5.25
63113;BMP280;49206;48.020;21.378;2022-12-24T01:44:35;99984.03;;;5.26
63113;BMP280;49206;48.020;21.378;2022-12-24T01:46:00;99987.69;;;5.25
63113;BMP280;49206;48.020;21.378;2022-12-24T01:47:29;99984.94;;;5.30
63113;BMP280;49206;48.020;21.378;2022-12-24T01:48:56;99975.09;;;5.27
63113;BMP280;49206;48.020;21.378;2022-12-24T01:50:13;99979.53;;;5.26
63113;BMP280;49206;48.020;21.378;2022-12-24T01:51:27;99974.00;;;5.28
63113;BMP280;49206;48.020;21.378;2022-12-24T01:52:36;99974.78;;;5.28
63113;BMP280;49206;48.020;21.378;2022-12-24T01:53:46;99977.22;;;5.25
63113;BMP280;49206;48.020;21.378;2022-12-24T01:55:09;99970.59;;;5.27
63113;BMP280;49206;48.020;21.378;2022-12-24T01:56:29;99978.66;;;5.31
63113;BMP280;49206;48.020;21.378;2022-12-24T01:57:39;99976.03;;;5.31
63113;BMP280;49206;48.020;21.378;2022-12-24T01:58:55;99967.41;;;5.30
63113;BMP280;49206;48.020;21.378;2022-12-24T02:00:07;99968.00;;;5.27
63113;BMP280;49206;48.020;21.378;2022-12-24T02:01:13;99964.63;;;5.27
63113;BMP280;49206;48.020;21.378;2022-12-24T02:02:16;99974.00;;;5.28
63113;BMP280;49206;48.020;21.378;2022-12-24T02:03:20;99973.56;;;5.26
63113;BMP280;49206;48.020;21.378;2022-12-24T02:04:33;99964.44;;;5.23
63113;BMP280;49206;48.020;21.378;2022-12-24T02:05:51;99961.84;;;5.23
63113;BMP280;49206;48.020;21.378;2022-12-24T02:06:54;99961.84;;;5.23
63113;BMP280;49206;48.020;21.378;2022-12-24T02:07:58;99963.84;;;5.26
63113;BMP280;49206;48.020;21.378;2022-12-24T02:09:04;99958.91;;;5.25
63113;BMP280;49206;48.020;21.378;2022-12-24T02:10:09;99964.91;;;5.25
63113;BMP280;49206;48.020;21.378;2022-12-24T02:11:15;99951.38;;;5.23
63113;BMP280;49206;48.020;21.378;2022-12-24T02:12:19;99959.22;;;5.23
63113;BMP280;49206;48.020;21.378;2022-12-24T02:13:21;99960.47;;;5.26
63113;BMP280;49206;48.020;21.378;2022-12-24T02:14:25;99950.59;;;5.23
63113;BMP280;49206;48.020;21.378;2022-12-24T02:15:31;99953.19;;;5.23
63113;BMP280;49206;48.020;21.378;2022-12-24T02:18:55;99944.84;;;5.21
63113;BMP280;49206;48.020;21.378;2022-12-24T02:23:26;99943.81;;;5.22
63113;BMP280;49206;48.020;21.378;2022-12-24T02:28:11;99950.28;;;5.24
63113;BMP280;49206;48.020;21.378;2022-12-24T02:31:01;99967.81;;;5.24
63113;BMP280;49206;48.020;21.378;2022-12-24T02:32:28;99956.16;;;5.30
63113;BMP280;49206;48.020;21.378;2022-12-24T02:33:41;99960.63;;;5.29
63113;BMP280;49206;48.020;21.378;2022-12-24T02:34:52;99951.53;;;5.27
63113;BMP280;49206;48.020;21.378;2022-12-24T02:37:33;99956.94;;;5.30
63113;BMP280;49206;48.020;21.378;2022-12-24T02:39:03;99948.91;;;5.27
63113;BMP280;49206;48.020;21.378;2022-12-24T02:40:15;99942.31;;;5.29
63113;BMP280;49206;48.020;21.378;2022-12-24T02:41:23;99945.22;;;5.28
63113;BMP280;49206;48.020;21.378;2022-12-24T02:42:34;99941.06;;;5.27
63113;BMP280;49206;48.020;21.378;2022-12-24T02:43:44;99940.28;;;5.26
63113;BMP280;49206;48.020;21.378;2022-12-24T02:44:54;99939.03;;;5.24
63113;BMP280;49206;48.020;21.378;2022-12-24T02:46:03;99930.44;;;5.23
63113;BMP280;49206;48.020;21.378;2022-12-24T02:47:08;99931.69;;;5.34
63113;BMP280;49206;48.020;21.378;2022-12-24T02:48:17;99932.44;;;5.35
63113;BMP280;49206;48.020;21.378;2022-12-24T02:49:21;99921.34;;;5.38
63113;BMP280;49206;48.020;21.378;2022-12-24T02:50:24;99929.84;;;5.35
63113;BMP280;49206;48.020;21.378;2022-12-24T02:51:27;99928.28;;;5.34
63113;BMP280;49206;48.020;21.378;2022-12-24T02:52:35;99930.00;;;5.38
63113;BMP280;49206;48.020;21.378;2022-12-24T02:53:39;99932.78;;;5.33
63113;BMP280;49206;48.020;21.378;2022-12-24T02:54:42;99927.22;;;5.35
63113;BMP280;49206;48.020;21.378;2022-12-24T02:57:40;99926.75;;;5.33
63113;BMP280;49206;48.020;21.378;2022-12-24T02:59:33;99925.84;;;5.37
63113;BMP280;49206;48.020;21.378;2022-12-24T03:03:35;99921.34;;;5.38
63113;BMP280;49206;48.020;21.378;2022-12-24T03:06:15;99922.91;;;5.39
63113;BMP280;49206;48.020;21.378;2022-12-24T03:07:40;99920.91;;;5.36
63113;BMP280;49206;48.020;21.378;2022-12-24T03:08:54;99912.59;;;5.34
63113;BMP280;49206;48.020;21.378;2022-12-24T03:11:07;99909.22;;;5.33
63113;BMP280;49206;48.020;21.378;2022-12-24T03:12:14;99906.44;;;5.38
63113;BMP280;49206;48.020;21.378;2022-12-24T03:13:18;99902.91;;;5.34
63113;BMP280;49206;48.020;21.378;2022-12-24T03:14:22;99895.34;;;5.33
63113;BMP280;49206;48.020;21.378;2022-12-24T03:15:25;99900.59;;;5.33
63113;BMP280;49206;48.020;21.378;2022-12-24T03:16:33;99896.25;;;5.37
63113;BMP280;49206;48.020;21.378;2022-12-24T03:17:37;99889.66;;;5.31
63113;BMP280;49206;48.020;21.378;2022-12-24T03:18:43;99887.94;;;5.35
63113;BMP280;49206;48.020;21.378;2022-12-24T03:19:47;99888.72;;;5.35
63113;BMP280;49206;48.020;21.378;2022-12-24T03:20:57;99889.81;;;5.34
63113;BMP280;49206;48.020;21.378;2022-12-24T03:22:03;99884.88;;;5.41
63113;BMP280;49206;48.020;21.378;2022-12-24T03:23:09;99885.50;;;5.38
63113;BMP280;49206;48.020;21.378;2022-12-24T03:24:12;99885.19;;;5.40
63113;BMP280;49206;48.020;21.378;2022-12-24T03:25:15;99884.88;;;5.41
63113;BMP280;49206;48.020;21.378;2022-12-24T03:26:19;99883.63;;;5.39
63113;BMP280;49206;48.020;21.378;2022-12-24T03:27:24;99878.88;;;5.41
63113;BMP280;49206;48.020;21.378;2022-12-24T03:28:30;99878.88;;;5.41
63113;BMP280;49206;48.020;21.378;2022-12-24T03:29:33;99876.72;;;5.43
63113;BMP280;49206;48.020;21.378;2022-12-24T03:30:41;99871.66;;;5.46
63113;BMP280;49206;48.020;21.378;2022-12-24T03:31:48;99872.53;;;5.50
63113;BMP280;49206;48.020;21.378;2022-12-24T03:32:51;99866.56;;;5.50
63113;BMP280;49206;48.020;21.378;2022-12-24T03:33:54;99867.00;;;5.52
63113;BMP280;49206;48.020;21.378;2022-12-24T03:34:56;99860.84;;;5.48
63113;BMP280;49206;48.020;21.378;2022-12-24T03:35:59;99865.03;;;5.49
63113;BMP280;49206;48.020;21.378;2022-12-24T03:37:02;99854.09;;;5.47
63113;BMP280;49206;48.020;21.378;2022-12-24T03:38:25;99859.03;;;5.48
63113;BMP280;49206;48.020;21.378;2022-12-24T03:39:28;99862.44;;;5.49
63113;BMP280;49206;48.020;21.378;2022-12-24T03:40:30;99854.69;;;5.52
63113;BMP280;49206;48.020;21.378;2022-12-24T03:41:34;99855.44;;;5.53
63113;BMP280;49206;48.020;21.378;2022-12-24T03:42:37;99861.16;;;5.55
63113;BMP280;49206;48.020;21.378;2022-12-24T03:43:39;99856.72;;;5.55
63113;BMP280;49206;48.020;21.378;2022-12-24T03:44:42;99856.72;;;5.55
63113;BMP280;49206;48.020;21.378;2022-12-24T03:45:45;99853.78;;;5.57
63113;BMP280;49206;48.020;21.378;2022-12-24T03:46:48;99856.38;;;5.57
63113;BMP280;49206;48.020;21.378;2022-12-24T03:47:51;99859.78;;;5.57
63113;BMP280;49206;48.020;21.378;2022-12-24T03:48:56;99857.94;;;5.58
63113;BMP280;49206;48.020;21.378;2022-12-24T03:49:59;99858.72;;;5.58
63113;BMP280;49206;48.020;21.378;2022-12-24T03:51:02;99850.53;;;5.60
63113;BMP280;49206;48.020;21.378;2022-12-24T03:52:05;99852.72;;;5.58
63113;BMP280;49206;48.020;21.378;2022-12-24T03:53:07;99850.53;;;5.60
63113;BMP280;49206;48.020;21.378;2022-12-24T03:54:10;99853.78;;;5.57
63113;BMP280;49206;48.020;21.378;2022-12-24T03:55:12;99844.97;;;5.70
63113;BMP280;49206;48.020;21.378;2022-12-24T03:56:16;99841.59;;;5.61
63113;BMP280;49206;48.020;21.378;2022-12-24T03:57:18;99847.34;;;5.63
63113;BMP280;49206;48.020;21.378;2022-12-24T03:58:21;99833.47;;;5.62
63113;BMP280;49206;48.020;21.378;2022-12-24T03:59:24;99837.91;;;5.62
63113;BMP280;49206;48.020;21.378;2022-12-24T04:00:29;99829.00;;;5.63
63113;BMP280;49206;48.020;21.378;2022-12-24T04:01:31;99834.25;;;5.63
63113;BMP280;49206;48.020;21.378;2022-12-24T04:02:34;99845.47;;;5.63
63113;BMP280;49206;48.020;21.378;2022-12-24T04:03:37;99840.38;;;5.67
63113;BMP280;49206;48.020;21.378;2022-12-24T04:04:40;99836.81;;;5.71
63113;BMP280;49206;48.020;21.378;2022-12-24T04:05:43;99837.16;;;5.78
63113;BMP280;49206;48.020;21.378;2022-12-24T04:06:46;99836.97;;;5.75
63113;BMP280;49206;48.020;21.378;2022-12-24T04:07:52;99831.75;;;5.75
63113;BMP280;49206;48.020;21.378;2022-12-24T04:08:56;99834.22;;;5.71
63113;BMP280;49206;48.020;21.378;2022-12-24T04:10:00;99827.28;;;5.67
63113;BMP280;49206;48.020;21.378;2022-12-24T04:11:04;99831.44;;;5.68
63113;BMP280;49206;48.020;21.378;2022-12-24T04:12:11;99838.66;;;5.71
63113;BMP280;49206;48.020;21.378;2022-12-24T04:13:13;99830.97;;;5.74
63113;BMP280;49206;48.020;21.378;2022-12-24T04:14:16;99831.59;;;5.71
63113;BMP280;49206;48.020;21.378;2022-12-24T04:15:18;99829.75;;;5.72
63113;BMP280;49206;48.020;21.378;2022-12-24T04:16:21;99821.91;;;5.72
63113;BMP280;49206;48.020;21.378;2022-12-24T04:17:26;99832.03;;;5.73
63113;BMP280;49206;48.020;21.378;2022-12-24T04:18:31;99839.59;;;5.75
63113;BMP280;49206;48.020;21.378;2022-12-24T04:19:34;99837.13;;;5.70
63113;BMP280;49206;48.020;21.378;2022-12-24T04:20:37;99818.19;;;5.73
63113;BMP280;49206;48.020;21.378;2022-12-24T04:21:40;99800.16;;;5.71
63113;BMP280;49206;48.020;21.378;2022-12-24T04:22:43;99812.97;;;5.64
63113;BMP280;49206;48.020;21.378;2022-12-24T04:23:46;99838.38;;;5.64
63113;BMP280;49206;48.020;21.378;2022-12-24T04:24:49;99842.84;;;5.63
63113;BMP280;49206;48.020;21.378;2022-12-24T04:26:00;99828.81;;;5.59
63113;BMP280;49206;48.020;21.378;2022-12-24T04:27:02;99824.03;;;5.70
63113;BMP280;49206;48.020;21.378;2022-12-24T04:28:05;99825.28;;;5.72
63113;BMP280;49206;48.020;21.378;2022-12-24T04:29:10;99822.00;;;5.84
63113;BMP280;49206;48.020;21.378;2022-12-24T04:30:13;99820.66;;;5.78
63113;BMP280;49206;48.020;21.378;2022-12-24T04:31:16;99816.97;;;5.70
63113;BMP280;49206;48.020;21.378;2022-12-24T04:32:19;99813.56;;;5.70
63113;BMP280;49206;48.020;21.378;2022-12-24T04:33:22;99814.19;;;5.67
63113;BMP280;49206;48.020;21.378;2022-12-24T04:34:25;99804.34;;;5.64
63113;BMP280;49206;48.020;21.378;2022-12-24T04:35:28;99807.72;;;5.73
63113;BMP280;49206;48.020;21.378;2022-12-24T04:36:31;99813.72;;;5.73
63113;BMP280;49206;48.020;21.378;2022-12-24T04:37:33;99809.22;;;5.82
63113;BMP280;49206;48.020;21.378;2022-12-24T04:38:37;99818.34;;;5.76
63113;BMP280;49206;48.020;21.378;2022-12-24T04:39:40;99814.19;;;5.75
63113;BMP280;49206;48.020;21.378;2022-12-24T04:40:43;99812.16;;;5.81
63113;BMP280;49206;48.020;21.378;2022-12-24T04:41:45;99808.47;;;5.82
63113;BMP280;49206;48.020;21.378;2022-12-24T04:42:48;99798.16;;;5.77
63113;BMP280;49206;48.020;21.378;2022-12-24T04:43:52;99801.25;;;5.79
63113;BMP280;49206;48.020;21.378;2022-12-24T04:44:55;99801.53;;;5.86
63113;BMP280;49206;48.020;21.378;2022-12-24T04:46:09;99796.13;;;5.82
63113;BMP280;49206;48.020;21.378;2022-12-24T04:47:12;99795.66;;;5.89
63113;BMP280;49206;48.020;21.378;2022-12-24T04:48:17;99795.66;;;5.89
63113;BMP280;49206;48.020;21.378;2022-12-24T04:49:20;99799.97;;;5.93
63113;BMP280;49206;48.020;21.378;2022-12-24T04:50:22;99798.44;;;5.92
63113;BMP280;49206;48.020;21.378;2022-12-24T04:51:26;99800.41;;;6.04
63113;BMP280;49206;48.020;21.378;2022-12-24T04:52:29;99804.72;;;6.00
63113;BMP280;49206;48.020;21.378;2022-12-24T04:53:33;99797.31;;;6.10
63113;BMP280;49206;48.020;21.378;2022-12-24T04:54:35;99802.69;;;6.05
63113;BMP280;49206;48.020;21.378;2022-12-24T04:55:38;99801.47;;;6.03
63113;BMP280;49206;48.020;21.378;2022-12-24T04:56:58;99806.09;;;6.06
63113;BMP280;49206;48.020;21.378;2022-12-24T04:58:01;99806.41;;;6.04
63113;BMP280;49206;48.020;21.378;2022-12-24T04:59:08;99810.25;;;6.07
63113;BMP280;49206;48.020;21.378;2022-12-24T05:00:11;99808.84;;;6.09
63113;BMP280;49206;48.020;21.378;2022-12-24T05:01:18;99802.97;;;6.21
63113;BMP280;49206;48.020;21.378;2022-12-24T05:02:21;99806.03;;;6.23
63113;BMP280;49206;48.020;21.378;2022-12-24T05:03:24;99808.22;;;6.21
63113;BMP280;49206;48.020;21.378;2022-12-24T05:04:27;99811.28;;;6.23
63113;BMP280;49206;48.020;21.378;2022-12-24T05:05:31;99810.63;;;6.26
63113;BMP280;49206;48.020;21.378;2022-12-24T05:06:34;99805.41;;;6.26
63113;BMP280;49206;48.020;21.378;2022-12-24T05:07:37;99808.81;;;6.26
63113;BMP280;49206;48.020;21.378;2022-12-24T05:08:46;99814.19;;;6.30
63113;BMP280;49206;48.020;21.378;2022-12-24T05:09:49;99810.81;;;6.29
63113;BMP280;49206;48.020;21.378;2022-12-24T05:10:55;99818.38;;;6.22
63113;BMP280;49206;48.020;21.378;2022-12-24T05:11:59;99815.31;;;6.20
63113;BMP280;49206;48.020;21.378;2022-12-24T05:13:02;99815.63;;;6.19
63113;BMP280;49206;48.020;21.378;2022-12-24T05:14:05;99818.69;;;6.21
63113;BMP280;49206;48.020;21.378;2022-12-24T05:15:09;99819.16;;;6.23
63113;BMP280;49206;48.020;21.378;2022-12-24T05:16:15;99823.94;;;6.21
63113;BMP280;49206;48.020;21.378;2022-12-24T05:17:18;99824.97;;;6.28
63113;BMP280;49206;48.020;21.378;2022-12-24T05:18:24;99821.91;;;6.26
63113;BMP280;49206;48.020;21.378;2022-12-24T05:19:28;99834.44;;;6.21
63113;BMP280;49206;48.020;21.378;2022-12-24T05:20:30;99840.56;;;6.25
63113;BMP280;49206;48.020;21.378;2022-12-24T05:21:33;99840.41;;;6.21
63113;BMP280;49206;48.020;21.378;2022-12-24T05:22:36;99841.78;;;6.27
63113;BMP280;49206;48.020;21.378;2022-12-24T05:23:57;99833.31;;;6.30
63113;BMP280;49206;48.020;21.378;2022-12-24T05:25:33;99844.47;;;6.19
63113;BMP280;49206;48.020;21.378;2022-12-24T05:26:56;99837.94;;;6.25
63113;BMP280;49206;48.020;21.378;2022-12-24T05:28:04;99846.44;;;6.30
63113;BMP280;49206;48.020;21.378;2022-12-24T05:29:20;99842.28;;;6.21
63113;BMP280;49206;48.020;21.378;2022-12-24T05:30:30;99837.50;;;6.23
63113;BMP280;49206;48.020;21.378;2022-12-24T05:31:44;99833.78;;;6.24
63113;BMP280;49206;48.020;21.378;2022-12-24T05:32:51;99833.00;;;6.23
63113;BMP280;49206;48.020;21.378;2022-12-24T05:33:58;99836.13;;;6.17
63113;BMP280;49206;48.020;21.378;2022-12-24T05:35:00;99830.56;;;6.18
63113;BMP280;49206;48.020;21.378;2022-12-24T05:36:15;99830.28;;;6.20
63113;BMP280;49206;48.020;21.378;2022-12-24T05:37:17;99836.72;;;6.22
63113;BMP280;49206;48.020;21.378;2022-12-24T05:38:33;99831.94;;;6.24
63113;BMP280;49206;48.020;21.378;2022-12-24T05:39:40;99840.75;;;6.20
63113;BMP280;49206;48.020;21.378;2022-12-24T05:40:46;99841.97;;;6.22
63113;BMP280;49206;48.020;21.378;2022-12-24T05:42:01;99844.91;;;6.21
63113;BMP280;49206;48.020;21.378;2022-12-24T05:43:05;99836.84;;;6.26
63113;BMP280;49206;48.020;21.378;2022-12-24T05:44:12;99842.88;;;6.26
63113;BMP280;49206;48.020;21.378;2022-12-24T05:45:16;99835.31;;;6.25
63113;BMP280;49206;48.020;21.378;2022-12-24T05:46:20;99847.97;;;6.23
63113;BMP280;49206;48.020;21.378;2022-12-24T05:47:32;99855.84;;;6.23
63113;BMP280;49206;48.020;21.378;2022-12-24T05:48:47;99848.63;;;6.20
63113;BMP280;49206;48.020;21.378;2022-12-24T05:50:00;99846.44;;;6.22
63113;BMP280;49206;48.020;21.378;2022-12-24T05:51:04;99856.59;;;6.23
63113;BMP280;49206;48.020;21.378;2022-12-24T05:52:07;99853.88;;;6.20
63113;BMP280;49206;48.020;21.378;2022-12-24T05:53:09;99855.25;;;6.17
63113;BMP280;49206;48.020;21.378;2022-12-24T05:54:12;99858.34;;;6.11
63113;BMP280;49206;48.020;21.378;2022-12-24T05:55:18;99849.72;;;6.19
63113;BMP280;49206;48.020;21.378;2022-12-24T05:56:23;99853.72;;;6.16
63113;BMP280;49206;48.020;21.378;2022-12-24T05:57:31;99855.84;;;6.23
63113;BMP280;49206;48.020;21.378;2022-12-24T05:58:41;99858.34;;;6.19
63113;BMP280;49206;48.020;21.378;2022-12-24T05:59:47;99854.31;;;6.13
63113;BMP280;49206;48.020;21.378;2022-12-24T06:00:52;99858.81;;;6.13
63113;BMP280;49206;48.020;21.378;2022-12-24T06:01:55;99859.56;;;6.13
63113;BMP280;49206;48.020;21.378;2022-12-24T06:02:58;99866.19;;;6.11
63113;BMP280;49206;48.020;21.378;2022-12-24T06:04:01;99869.44;;;6.16
63113;BMP280;49206;48.020;21.378;2022-12-24T06:05:04;99873.44;;;6.14
63113;BMP280;49206;48.020;21.378;2022-12-24T06:06:10;99863.56;;;6.11
63113;BMP280;49206;48.020;21.378;2022-12-24T06:07:41;99858.53;;;6.06
63113;BMP280;49206;48.020;21.378;2022-12-24T06:08:50;99865.91;;;6.12
63113;BMP280;49206;48.020;21.378;2022-12-24T06:10:08;99862.97;;;5.97
63113;BMP280;49206;48.020;21.378;2022-12-24T06:11:16;99856.50;;;6.03
63113;BMP280;49206;48.020;21.378;2022-12-24T06:12:23;99869.00;;;5.97
63113;BMP280;49206;48.020;21.378;2022-12-24T06:13:27;99858.22;;;5.99
63113;BMP280;49206;48.020;21.378;2022-12-24T06:14:36;99863.31;;;6.04
63113;BMP280;49206;48.020;21.378;2022-12-24T06:15:40;99859.28;;;5.98
63113;BMP280;49206;48.020;21.378;2022-12-24T06:16:43;99858.22;;;5.99
63113;BMP280;49206;48.020;21.378;2022-12-24T06:17:55;99857.75;;;5.97
63113;BMP280;49206;48.020;21.378;2022-12-24T06:19:00;99852.06;;;5.95
63113;BMP280;49206;48.020;21.378;2022-12-24T06:20:03;99851.59;;;5.93
63113;BMP280;49206;48.020;21.378;2022-12-24T06:21:13;99853.78;;;5.91
63113;BMP280;49206;48.020;21.378;2022-12-24T06:22:17;99859.47;;;5.84
63113;BMP280;49206;48.020;21.378;2022-12-24T06:23:21;99852.50;;;5.80
63113;BMP280;49206;48.020;21.378;2022-12-24T06:24:26;99856.06;;;5.84
63113;BMP280;49206;48.020;21.378;2022-12-24T06:25:28;99856.06;;;5.84
63113;BMP280;49206;48.020;21.378;2022-12-24T06:26:31;99853.16;;;5.85
63113;BMP280;49206;48.020;21.378;2022-12-24T06:27:33;99864.56;;;5.81
63113;BMP280;49206;48.020;21.378;2022-12-24T06:28:39;99868.09;;;5.85
63113;BMP280;49206;48.020;21.378;2022-12-24T06:29:42;99875.22;;;5.76
63113;BMP280;49206;48.020;21.378;2022-12-24T06:30:46;99873.47;;;5.80
63113;BMP280;49206;48.020;21.378;2022-12-24T06:31:49;99881.81;;;5.73
63113;BMP280;49206;48.020;21.378;2022-12-24T06:32:51;99877.66;;;5.72
63113;BMP280;49206;48.020;21.378;2022-12-24T06:33:54;99869.03;;;5.72
63113;BMP280;49206;48.020;21.378;2022-12-24T06:34:59;99862.41;;;5.74
63113;BMP280;49206;48.020;21.378;2022-12-24T06:36:06;99863.31;;;5.70
63113;BMP280;49206;48.020;21.378;2022-12-24T06:37:17;99868.88;;;5.60
63113;BMP280;49206;48.020;21.378;2022-12-24T06:38:29;99871.81;;;5.67
63113;BMP280;49206;48.020;21.378;2022-12-24T06:39:32;99877.97;;;5.62
63113;BMP280;49206;48.020;21.378;2022-12-24T06:40:37;99887.38;;;5.63
63113;BMP280;49206;48.020;21.378;2022-12-24T06:41:41;99888.91;;;5.64
63113;BMP280;49206;48.020;21.378;2022-12-24T06:42:48;99895.22;;;5.72
63113;BMP280;49206;48.020;21.378;2022-12-24T06:43:51;99901.38;;;5.67